Time;durP1;ratioP1;P1;durP2;ratioP2;P2;SDS_P1;SDS_P2;PMS_P1;PMS_P2;Temp;Humidity;BMP_temperature;BMP_pressure;BME280_temperature;BME280_humidity;BME280_pressure;Samples;Min_cycle;Max_cycle;Signal;HPM_P1;HPM_P2
2022/09/24 00:35:15;;;;;;;;;;;;;;;;;;;;;
2022/09/24 00:41:03;;;;;;;19.63;12.45;;;;;;;11.27;95.26;101102.25;10254326;23;20070;-87
2022/09/24 00:46:16;;;;;;;24.30;12.35;;;;;;;11.26;95.11;101102.19;10371518;28;20149;-88
2022/09/24 00:51:21;;;;;;;20.58;12.45;;;;;;;11.25;95.34;101100.44;10364523;28;20130;-87
2022/09/24 00:56:23;;;;;;;22.48;13.02;;;;;;;11.22;95.40;101103.00;10351808;28;20054;-87
2022/09/24 01:01:25;;;;;;;22.23;13.48;;;;;;;11.17;95.35;101096.78;10361066;28;20615;-87
2022/09/24 01:06:27;;;;;;;23.10;13.27;;;;;;;11.14;95.38;101097.63;10361741;28;20076;-89
2022/09/24 01:11:32;;;;;;;24.77;14.45;;;;;;;11.12;95.44;101094.06;10346809;28;20060;-90
2022/09/24 01:17:24;;;;;;;24.27;14.60;;;;;;;11.12;95.54;101088.81;10342835;28;20053;-92
2022/09/24 01:29:40;;;;;;;;;;;;;;;11.12;95.78;101070.47;10271559;23;20054;-93
2022/09/24 01:49:15;;;;;;;23.65;14.68;;;;;;;11.09;96.02;101062.56;10265015;28;20051;-93
2022/09/24 01:55:23;;;;;;;26.17;15.80;;;;;;;11.07;95.85;101054.66;10241136;28;20138;-93
2022/09/24 02:01:59;;;;;;;28.52;16.63;;;;;;;11.02;95.93;101042.31;10236720;28;20055;-93
2022/09/24 02:07:46;;;;;;;24.05;15.05;;;;;;;11.01;96.13;101032.72;10262334;28;20053;-94
2022/09/24 02:13:16;;;;;;;;;;;;;;;11.04;96.17;101036.25;10215890;28;20137;-93
2022/09/24 02:18:41;;;;;;;26.38;16.80;;;;;;;11.01;96.18;101037.97;10266807;28;19922;-93
2022/09/24 02:24:36;;;;;;;28.30;17.02;;;;;;;11.00;96.38;101034.44;10281259;28;20043;-92
2022/09/24 02:30:03;;;;;;;28.58;17.17;;;;;;;10.99;96.34;101040.56;10233592;28;20043;-94
2022/09/24 02:35:39;;;;;;;26.02;17.13;;;;;;;11.01;96.54;101032.72;10260367;28;20066;-92
2022/09/24 02:41:40;;;;;;;31.40;18.35;;;;;;;11.06;96.68;101024.06;10261837;28;20047;-93
2022/09/24 02:48:11;;;;;;;32.75;18.65;;;;;;;11.07;96.55;101020.59;10133405;29;20045;-94
2022/09/24 03:00:39;;;;;;;34.05;20.55;;;;;;;11.08;96.74;101017.13;9974026;29;20740;-93
2022/09/24 03:06:43;;;;;;;35.30;19.95;;;;;;;11.10;96.69;101011.91;9945007;29;20054;-96
2022/09/24 03:12:49;;;;;;;35.78;20.08;;;;;;;11.13;96.86;101006.72;9948282;29;20141;-94
2022/09/24 03:18:09;;;;;;;34.42;21.35;;;;;;;11.16;96.95;101021.66;10050362;29;20072;-93
2022/09/24 03:24:04;;;;;;;33.75;20.45;;;;;;;11.17;97.10;101007.66;10046087;29;20052;-93
2022/09/24 03:29:09;;;;;;;38.85;21.00;;;;;;;11.21;97.05;101002.50;10090385;29;20083;-92
2022/09/24 03:34:39;;;;;;;;;;;;;;;11.20;97.27;101002.47;10084795;29;20049;-94
2022/09/24 03:40:52;;;;;;;;;;;;;;;;;;;;;
2022/09/24 03:46:45;;;;;;;39.35;21.63;;;;;;;11.25;97.42;101000.84;10122633;29;20060;-95
2022/09/24 03:52:23;;;;;;;41.05;22.23;;;;;;;11.26;97.42;100993.00;10097912;29;20056;-93
2022/09/24 03:58:02;;;;;;;34.47;22.38;;;;;;;11.28;97.64;100995.66;10099082;29;20049;-94
2022/09/24 04:03:39;;;;;;;41.45;24.15;;;;;;;11.26;97.88;100989.47;10112285;29;20057;-93
2022/09/24 04:09:05;;;;;;;39.95;23.80;;;;;;;11.28;97.65;100985.16;10096918;29;20515;-93
2022/09/24 04:14:59;;;;;;;;;;;;;;;;;;;;;
2022/09/24 04:21:06;;;;;;;42.03;25.77;;;;;;;11.25;97.76;100985.09;10191265;28;20121;-94
2022/09/24 04:27:38;;;;;;;40.55;23.92;;;;;;;11.21;97.94;100980.66;10263358;28;20454;-94
2022/09/24 04:33:36;;;;;;;47.38;25.63;;;;;;;11.26;98.11;100981.59;10098302;29;20182;-93
2022/09/24 04:45:44;;;;;;;;;;;;;;;;;;;;;
2022/09/24 04:51:47;;;;;;;51.03;27.05;;;;;;;11.27;98.27;100975.53;10164095;29;20068;-94
2022/09/24 04:57:14;;;;;;;50.25;27.33;;;;;;;11.27;98.30;100979.03;10140752;29;20470;-92
2022/09/24 05:02:32;;;;;;;49.38;27.77;;;;;;;11.26;98.29;100969.41;10513494;23;20049;-91
2022/09/24 05:07:35;;;;;;;54.95;28.45;;;;;;;11.31;98.55;100974.72;10339337;28;20049;-91
2022/09/24 05:12:44;;;;;;;49.25;27.35;;;;;;;11.32;98.42;100973.88;10335677;28;20113;-91
2022/09/24 05:18:06;;;;;;;46.15;25.95;;;;;;;11.30;98.58;100962.47;10290759;28;20109;-91
2022/09/24 05:23:09;;;;;;;42.25;25.33;;;;;;;11.32;98.56;100968.63;10328756;28;20521;-90
2022/09/24 05:28:12;;;;;;;42.72;26.75;;;;;;;11.32;98.49;100969.50;10321911;28;20752;-88
2022/09/24 05:33:14;;;;;;;46.47;24.58;;;;;;;11.32;98.76;100972.13;10338119;28;20054;-87
2022/09/24 05:38:16;;;;;;;41.70;24.27;;;;;;;11.35;98.48;100975.66;10335249;28;20093;-88
2022/09/24 05:43:18;;;;;;;42.95;24.35;;;;;;;11.38;98.70;100973.97;10356069;28;21370;-87
2022/09/24 05:48:20;;;;;;;41.25;23.65;;;;;;;11.39;98.64;100978.34;10351783;28;20045;-88
2022/09/24 05:53:23;;;;;;;40.92;24.45;;;;;;;11.37;98.57;100974.81;10366651;28;20123;-89
2022/09/24 05:58:29;;;;;;;42.05;23.35;;;;;;;11.41;98.75;100973.13;10349948;28;20048;-89
2022/09/24 06:03:41;;;;;;;43.78;22.85;;;;;;;11.37;98.57;100969.59;10360712;28;20057;-90
2022/09/24 06:15:20;;;;;;;38.55;23.63;;;;;;;11.40;98.44;100979.25;8685139;23;20135;-90
2022/09/24 06:26:50;;;;;;;39.38;24.33;;;;;;;11.48;98.73;100969.75;10315214;28;20152;-91
2022/09/24 06:32:42;;;;;;;40.50;23.75;;;;;;;11.46;98.68;100990.69;10381785;28;20046;-91
2022/09/24 06:37:48;;;;;;;37.28;23.77;;;;;;;11.47;98.75;100992.47;10373541;28;20483;-88
2022/09/24 06:42:53;;;;;;;44.80;26.20;;;;;;;11.49;98.56;100989.88;10382441;28;20084;-89
2022/09/24 06:48:00;;;;;;;44.58;25.33;;;;;;;11.59;98.67;100989.19;10377089;28;20049;-89
2022/09/24 06:53:06;;;;;;;42.03;25.25;;;;;;;11.62;98.70;100996.19;10370192;28;20054;-88
2022/09/24 06:58:12;;;;;;;43.78;25.40;;;;;;;11.70;98.56;100996.34;10377174;28;20041;-90
2022/09/24 07:03:21;;;;;;;50.00;27.85;;;;;;;11.70;98.71;100994.59;10375717;28;20080;-90
2022/09/24 07:15:00;;;;;;;39.13;25.50;;;;;;;11.87;98.64;101002.72;10392286;28;20691;-88
2022/09/24 07:20:04;;;;;;;44.95;26.27;;;;;;;11.91;98.56;100998.41;10356154;28;20073;-90
2022/09/24 07:25:14;;;;;;;46.88;28.90;;;;;;;11.94;98.60;101004.59;10371853;28;20517;-87
2022/09/24 07:30:16;;;;;;;53.85;29.30;;;;;;;11.96;98.51;101010.75;10367759;28;20061;-86
2022/09/24 07:35:19;;;;;;;44.60;26.40;;;;;;;11.98;98.41;101002.91;10376255;28;20153;-86
2022/09/24 07:40:22;;;;;;;46.20;27.33;;;;;;;12.00;98.44;101009.06;10379879;28;20053;-85
2022/09/24 07:45:28;;;;;;;38.55;24.42;;;;;;;12.11;98.59;101011.84;10371940;28;20479;-84
2022/09/24 07:50:32;;;;;;;40.08;26.08;;;;;;;12.13;98.39;101011.03;10370191;28;20049;-84
2022/09/24 07:55:39;;;;;;;39.45;22.70;;;;;;;12.22;98.33;101009.38;10369448;28;20077;-84
2022/09/24 08:00:41;;;;;;;40.28;24.85;;;;;;;12.25;98.35;101020.81;10389313;28;20076;-84
2022/09/24 08:05:44;;;;;;;40.33;23.05;;;;;;;12.32;98.35;101022.63;10390151;28;20131;-83
2022/09/24 08:10:46;;;;;;;36.95;22.95;;;;;;;12.31;98.25;101014.75;10387190;28;21036;-82
2022/09/24 08:15:56;;;;;;;39.35;22.35;;;;;;;12.30;98.21;101018.25;10398449;28;20571;-82
2022/09/24 08:21:03;;;;;;;37.47;21.50;;;;;;;12.35;98.27;101009.53;10393398;28;20050;-82
2022/09/24 08:26:04;;;;;;;34.75;21.13;;;;;;;12.39;98.10;101021.00;10396196;28;20072;-82
2022/09/24 08:31:10;;;;;;;38.33;22.73;;;;;;;12.45;98.01;101028.94;10394382;28;20041;-82
2022/09/24 08:36:11;;;;;;;34.05;20.30;;;;;;;12.48;98.05;101013.22;10392043;28;20057;-82
2022/09/24 08:41:36;;;;;;;38.97;21.35;;;;;;;12.52;97.95;101015.03;10388452;28;20073;-82
2022/09/24 08:47:23;;;;;;;37.35;21.77;;;;;;;12.55;97.85;101028.22;10408682;28;20108;-81
2022/09/24 08:52:35;;;;;;;41.05;21.58;;;;;;;12.55;97.84;101020.34;10402454;28;20080;-81
2022/09/24 08:58:02;;;;;;;39.92;20.58;;;;;;;12.64;97.80;101019.56;10385859;28;20204;-81
2022/09/24 09:03:36;;;;;;;37.80;21.60;;;;;;;12.74;97.80;101025.81;10406121;28;20084;-81
2022/09/24 09:08:52;;;;;;;44.90;23.73;;;;;;;12.86;97.87;101023.31;10381255;28;20509;-81
2022/09/24 09:14:33;;;;;;;43.15;24.42;;;;;;;13.00;97.63;101022.59;10413468;28;20087;-81
2022/09/24 09:19:51;;;;;;;43.72;23.83;;;;;;;13.17;97.47;101036.81;10402846;28;20123;-82
2022/09/24 09:25:00;;;;;;;42.88;23.23;;;;;;;13.21;97.43;101021.94;10378518;28;20140;-83
2022/09/24 09:30:11;;;;;;;44.88;23.00;;;;;;;13.16;97.21;101027.13;10402685;28;20061;-82
2022/09/24 09:35:59;;;;;;;45.22;22.85;;;;;;;13.23;97.03;101023.72;10412475;28;20164;-81
2022/09/24 09:41:01;;;;;;;39.45;22.13;;;;;;;13.40;96.96;101029.16;10347482;28;20061;-81
2022/09/24 09:46:21;;;;;;;39.35;21.50;;;;;;;13.49;96.84;101019.59;10391135;28;20049;-80
2022/09/24 09:51:25;;;;;;;42.30;22.80;;;;;;;13.48;96.74;101026.63;10399197;28;20042;-81
2022/09/24 09:56:33;;;;;;;45.55;23.13;;;;;;;13.53;96.61;101024.03;10401412;28;20426;-82
2022/09/24 10:01:40;;;;;;;40.10;20.70;;;;;;;13.40;96.47;101021.28;10381343;28;20120;-80
2022/09/24 10:06:42;;;;;;;41.72;22.02;;;;;;;13.40;96.22;101016.00;10380548;28;20060;-81
2022/09/24 10:11:44;;;;;;;35.25;19.80;;;;;;;13.46;96.17;101028.34;10402937;28;20057;-81
2022/09/24 10:16:53;;;;;;;42.97;21.73;;;;;;;13.38;96.12;101020.38;10403267;28;20053;-82
2022/09/24 10:21:56;;;;;;;37.80;20.35;;;;;;;13.38;96.14;101023.00;10403556;28;20113;-81
2022/09/24 10:26:59;;;;;;;31.55;18.15;;;;;;;13.43;96.18;101030.94;10382208;28;20079;-80
2022/09/24 10:32:03;;;;;;;38.30;20.25;;;;;;;13.49;96.07;101023.09;10375054;28;20146;-80
2022/09/24 10:37:17;;;;;;;32.60;16.17;;;;;;;13.65;96.22;101024.13;10350360;28;20140;-80
2022/09/24 10:42:26;;;;;;;32.33;17.75;;;;;;;13.83;96.00;101014.63;10350214;28;20045;-81
2022/09/24 10:47:56;;;;;;;35.13;18.58;;;;;;;14.16;95.70;101019.22;10400185;28;20463;-80
2022/09/24 10:53:05;;;;;;;35.60;18.17;;;;;;;14.36;95.59;101014.06;10397991;28;20069;-80
2022/09/24 10:58:32;;;;;;;32.83;17.50;;;;;;;14.40;95.19;101028.16;10373569;28;20081;-81
2022/09/24 11:04:01;;;;;;;30.50;15.75;;;;;;;14.31;94.58;101019.31;10387028;28;20088;-81
2022/09/24 11:09:37;;;;;;;27.55;15.77;;;;;;;14.39;93.96;101015.84;10400935;28;20080;-81
2022/09/24 11:14:45;;;;;;;28.65;15.52;;;;;;;14.39;93.72;101018.47;10363216;28;20057;-80
2022/09/24 11:20:14;;;;;;;28.75;16.20;;;;;;;14.23;93.23;101021.03;10411926;28;20052;-82
2022/09/24 11:25:25;;;;;;;29.75;16.63;;;;;;;14.09;93.05;101018.28;10404157;28;20505;-81
2022/09/24 11:30:33;;;;;;;30.45;15.70;;;;;;;14.12;93.23;101017.44;10402123;28;20059;-82
2022/09/24 11:36:00;;;;;;;31.10;16.58;;;;;;;14.17;93.46;101023.59;10406547;28;20140;-81
2022/09/24 11:41:22;;;;;;;36.90;16.88;;;;;;;14.20;93.72;101014.84;10412693;28;20049;-81
2022/09/24 11:46:27;;;;;;;27.67;15.25;;;;;;;14.18;93.66;101017.47;10383579;28;20057;-79
2022/09/24 11:51:50;;;;;;;27.00;15.68;;;;;;;14.20;93.40;101018.38;10386544;28;20050;-82
2022/09/24 11:57:23;;;;;;;32.83;16.23;;;;;;;14.23;93.39;101020.13;10383929;28;20061;-80
2022/09/24 12:02:27;;;;;;;28.13;15.30;;;;;;;14.33;93.48;101014.91;10382077;28;20493;-80
2022/09/24 12:07:39;;;;;;;32.13;14.93;;;;;;;14.30;93.28;101019.31;10405443;28;20129;-80
2022/09/24 12:12:43;;;;;;;30.77;16.40;;;;;;;14.24;93.12;101014.88;10399785;28;20915;-81
2022/09/24 12:18:06;;;;;;;27.30;15.88;;;;;;;14.26;92.83;101010.50;10405557;28;20050;-81
2022/09/24 12:23:12;;;;;;;28.88;15.90;;;;;;;14.27;93.01;101014.88;10409732;28;20475;-81
2022/09/24 12:34:01;;;;;;;30.90;15.85;;;;;;;14.53;92.91;100993.06;10413069;28;20083;-82
2022/09/24 12:39:14;;;;;;;28.92;15.45;;;;;;;14.62;92.50;101000.16;10404375;28;20073;-81
2022/09/24 12:44:43;;;;;;;26.95;14.60;;;;;;;14.65;92.12;101005.44;10410110;28;20580;-81
2022/09/24 12:49:56;;;;;;;29.80;14.35;;;;;;;14.62;92.00;101003.69;10390949;28;20045;-81
2022/09/24 12:55:01;;;;;;;25.10;12.15;;;;;;;14.62;92.16;101005.41;10407430;28;20056;-81
2022/09/24 13:00:41;;;;;;;23.98;13.23;;;;;;;14.61;92.39;101004.56;10410979;28;20045;-81
2022/09/24 13:05:42;;;;;;;23.25;12.63;;;;;;;14.57;92.43;100997.47;10403056;28;20065;-82
2022/09/24 13:10:59;;;;;;;23.23;13.90;;;;;;;14.66;92.36;100992.25;10411131;28;20076;-81
2022/09/24 13:16:04;;;;;;;23.67;12.70;;;;;;;14.74;92.18;100991.41;10373493;28;20157;-81
2022/09/24 13:21:07;;;;;;;23.23;13.18;;;;;;;14.78;92.45;100993.19;10403412;28;20424;-80
2022/09/24 13:26:24;;;;;;;22.90;13.55;;;;;;;14.72;92.38;100990.53;10410133;28;20058;-82
2022/09/24 13:31:26;;;;;;;24.00;13.48;;;;;;;14.72;91.94;100988.78;10400020;28;20060;-81
2022/09/24 13:36:42;;;;;;;22.60;12.20;;;;;;;14.71;92.23;100986.13;10387657;28;20049;-80
2022/09/24 13:41:58;;;;;;;16.75;8.27;;;;;;;14.92;92.04;100987.94;10399802;28;20077;-80
2022/09/24 13:47:27;;;;;;;12.20;5.25;;;;;;;15.06;91.89;100983.59;10374342;28;20062;-80
2022/09/24 13:52:36;;;;;;;9.50;4.93;;;;;;;14.95;91.24;100987.94;10397097;28;20045;-80
2022/09/24 13:57:43;;;;;;;17.08;6.05;;;;;;;15.03;91.07;100987.09;10404330;28;20045;-79
2022/09/24 14:03:01;;;;;;;10.77;6.32;;;;;;;15.14;90.85;100996.78;10412150;28;20052;-80
2022/09/24 14:08:12;;;;;;;12.98;6.72;;;;;;;15.31;90.35;100989.78;10391362;28;20125;-80
2022/09/24 14:13:23;;;;;;;12.15;7.25;;;;;;;15.29;89.92;100993.28;10398858;28;20046;-79
2022/09/24 14:18:26;;;;;;;17.35;7.93;;;;;;;15.26;89.79;100999.44;10397282;28;20069;-80
2022/09/24 14:23:35;;;;;;;18.13;9.50;;;;;;;15.15;89.42;100994.16;10403292;28;20057;-78
2022/09/24 14:28:38;;;;;;;17.08;8.95;;;;;;;15.17;89.81;100988.88;10395436;28;20129;-79
2022/09/24 14:33:39;;;;;;;14.40;8.80;;;;;;;15.15;89.57;100988.00;10385717;28;20055;-80
2022/09/24 14:38:53;;;;;;;16.38;8.98;;;;;;;15.07;90.22;100987.09;10408926;28;20148;-80
2022/09/24 14:44:02;;;;;;;13.10;8.18;;;;;;;14.85;90.10;100985.31;10382676;28;20049;-80
2022/09/24 14:49:21;;;;;;;14.48;8.25;;;;;;;14.78;90.52;100998.47;10379571;28;20045;-80
2022/09/24 14:54:29;;;;;;;13.68;7.85;;;;;;;14.58;90.68;100999.25;10379746;28;20050;-79
2022/09/24 14:59:36;;;;;;;9.60;5.73;;;;;;;14.37;91.03;100997.38;10375790;28;20115;-79
2022/09/24 15:04:38;;;;;;;9.77;5.28;;;;;;;14.29;91.44;101002.63;10354675;28;20054;-78
2022/09/24 15:09:40;;;;;;;8.77;4.53;;;;;;;14.23;91.61;100999.06;10374244;28;20038;-79
2022/09/24 15:14:54;;;;;;;9.85;5.05;;;;;;;14.11;91.87;101007.75;10392985;28;20069;-80
2022/09/24 15:19:58;;;;;;;7.75;3.70;;;;;;;14.01;91.96;101005.97;10386195;28;20424;-80
2022/09/24 15:25:00;;;;;;;8.10;3.47;;;;;;;13.90;92.23;101006.78;10388580;28;20052;-81
2022/09/24 15:30:06;;;;;;;5.00;2.63;;;;;;;13.79;92.55;101005.81;10375826;28;20065;-78
2022/09/24 15:35:13;;;;;;;3.63;1.67;;;;;;;13.65;92.44;101012.75;10373520;28;20132;-79
2022/09/24 15:40:21;;;;;;;4.57;1.60;;;;;;;13.50;92.31;101018.75;10375431;28;20038;-79
2022/09/24 15:45:24;;;;;;;3.13;1.73;;;;;;;13.39;92.58;101026.50;10400305;28;20049;-79
2022/09/24 15:50:27;;;;;;;2.60;1.60;;;;;;;13.26;92.62;101033.38;10365827;28;20069;-80
2022/09/24 15:55:30;;;;;;;3.92;1.85;;;;;;;13.12;93.20;101038.50;10393092;28;20406;-81
2022/09/24 16:00:32;;;;;;;3.33;1.88;;;;;;;13.03;93.14;101041.91;10403275;28;20049;-81
2022/09/24 16:05:33;;;;;;;2.63;1.75;;;;;;;12.97;93.45;101033.97;10400185;28;20113;-82
2022/09/24 16:10:35;;;;;;;4.55;2.10;;;;;;;12.87;93.67;101037.34;10406493;28;20551;-81
2022/09/24 16:15:39;;;;;;;5.70;2.40;;;;;;;12.83;93.92;101046.94;10402730;28;20059;-83
2022/09/24 16:20:44;;;;;;;6.07;2.80;;;;;;;12.76;94.06;101050.38;10380771;28;20045;-84
2022/09/24 16:25:57;;;;;;;5.60;2.80;;;;;;;12.78;94.25;101048.63;10376944;28;20445;-84
2022/09/24 16:31:05;;;;;;;4.15;2.33;;;;;;;12.70;94.31;101058.16;10378175;28;20145;-83
2022/09/24 16:36:07;;;;;;;3.38;2.05;;;;;;;12.62;94.46;101051.94;10379812;28;20084;-83
2022/09/24 16:41:09;;;;;;;4.22;2.05;;;;;;;12.58;94.34;101058.00;10382142;28;20072;-82
2022/09/24 16:46:11;;;;;;;4.72;2.33;;;;;;;12.59;94.68;101060.66;10390370;28;20084;-82
2022/09/24 16:51:20;;;;;;;4.03;2.28;;;;;;;12.58;94.61;101056.28;10369104;28;20049;-81
2022/09/24 16:56:23;;;;;;;4.18;1.85;;;;;;;12.58;94.47;101066.78;10379366;28;20055;-81
2022/09/24 17:01:24;;;;;;;4.95;2.08;;;;;;;12.57;94.30;101069.38;10389984;28;20655;-82
2022/09/24 17:06:29;;;;;;;3.95;1.85;;;;;;;12.53;94.39;101071.06;10403238;28;20085;-81
2022/09/24 17:11:31;;;;;;;5.18;2.30;;;;;;;12.52;94.51;101077.19;10396843;28;20041;-81
2022/09/24 17:16:33;;;;;;;5.30;2.30;;;;;;;12.52;94.44;101083.34;10370308;28;20073;-82
2022/09/24 17:21:37;;;;;;;5.50;2.38;;;;;;;12.48;94.44;101092.03;10379631;28;20080;-81
2022/09/24 17:26:38;;;;;;;8.02;2.78;;;;;;;12.49;94.41;101083.28;10390879;28;20160;-82
2022/09/24 17:31:40;;;;;;;5.72;2.65;;;;;;;12.49;94.43;101080.66;10381650;28;20049;-82
2022/09/24 17:36:42;;;;;;;7.28;3.53;;;;;;;12.50;94.35;101090.28;10398022;28;20046;-80
2022/09/24 17:41:43;;;;;;;8.98;4.65;;;;;;;12.43;94.28;101095.44;10403704;28;20112;-81
2022/09/24 17:46:46;;;;;;;15.05;7.47;;;;;;;12.37;94.28;101091.88;10405182;28;20049;-81
2022/09/24 17:51:48;;;;;;;17.92;8.25;;;;;;;12.34;94.33;101099.72;10406217;28;20041;-82
2022/09/24 17:56:50;;;;;;;13.73;8.38;;;;;;;12.30;94.01;101103.13;10396668;28;20494;-81
2022/09/24 18:01:51;;;;;;;15.82;9.43;;;;;;;12.27;94.23;101103.09;10392924;28;20056;-81
2022/09/24 18:06:53;;;;;;;16.85;9.82;;;;;;;12.26;94.04;101105.69;10401911;28;20689;-81
2022/09/24 18:11:55;;;;;;;18.48;11.63;;;;;;;12.28;94.36;101104.88;10391933;28;20053;-81
2022/09/24 18:16:58;;;;;;;21.38;11.82;;;;;;;12.30;94.38;101118.03;10402891;28;20057;-81
2022/09/24 18:22:02;;;;;;;20.48;12.20;;;;;;;12.24;94.33;101124.06;10397923;28;20069;-81
2022/09/24 18:27:04;;;;;;;20.75;12.77;;;;;;;12.21;94.49;101145.00;10405249;28;20049;-81
2022/09/24 18:32:06;;;;;;;19.80;12.82;;;;;;;12.20;94.25;101144.13;10390298;28;20690;-81
2022/09/24 18:37:07;;;;;;;24.00;14.02;;;;;;;12.20;94.40;101149.38;10404880;28;20413;-80
2022/09/24 18:42:09;;;;;;;25.45;15.57;;;;;;;12.12;94.26;101145.75;10406204;28;20665;-81
2022/09/24 18:47:13;;;;;;;29.95;18.05;;;;;;;12.15;94.35;101150.16;10381263;28;20440;-81
2022/09/24 18:52:15;;;;;;;24.10;15.57;;;;;;;12.11;94.50;101157.09;10401010;28;20080;-81
2022/09/24 18:57:17;;;;;;;25.08;15.13;;;;;;;12.12;94.45;101160.63;10397331;28;20049;-81
2022/09/24 19:02:23;;;;;;;28.70;15.50;;;;;;;12.13;94.29;101155.41;10385415;28;20037;-80
2022/09/24 19:07:25;;;;;;;23.52;14.15;;;;;;;12.11;94.29;101159.72;10397892;28;20077;-81
2022/09/24 19:12:28;;;;;;;23.42;13.88;;;;;;;12.11;94.22;101167.59;10381318;28;20065;-81
2022/09/24 19:17:31;;;;;;;22.38;12.45;;;;;;;12.08;94.20;101175.41;10400560;28;20049;-81
2022/09/24 19:22:33;;;;;;;23.25;12.48;;;;;;;12.04;94.25;101173.63;10396735;28;20401;-82
2022/09/24 19:27:34;;;;;;;27.38;13.27;;;;;;;12.00;94.17;101188.41;10383025;28;20063;-81
2022/09/24 19:32:37;;;;;;;24.63;12.05;;;;;;;11.97;94.15;101187.47;10401032;28;20129;-80
2022/09/24 19:37:39;;;;;;;22.83;12.50;;;;;;;11.95;94.25;101182.22;10401428;28;20060;-81
2022/09/24 19:42:42;;;;;;;20.90;11.85;;;;;;;12.01;94.41;101187.56;10397915;28;20152;-80
2022/09/24 19:47:44;;;;;;;21.75;10.98;;;;;;;12.00;94.21;101187.53;10387818;28;20046;-81
2022/09/24 19:52:47;;;;;;;22.92;10.55;;;;;;;11.98;94.13;101194.47;10411301;28;20045;-81
2022/09/24 19:57:49;;;;;;;20.70;10.25;;;;;;;11.91;94.07;101192.59;10405980;28;20077;-80
2022/09/24 20:02:51;;;;;;;19.65;9.02;;;;;;;11.91;94.02;101198.72;10412580;28;20420;-80
2022/09/24 20:07:52;;;;;;;16.13;9.32;;;;;;;11.85;94.06;101196.84;10411517;28;20045;-81
2022/09/24 20:12:54;;;;;;;19.55;8.60;;;;;;;11.92;94.27;101194.34;10406288;28;20049;-81
2022/09/24 20:17:56;;;;;;;21.33;9.30;;;;;;;11.92;93.93;101191.72;10411836;28;20446;-80
2022/09/24 20:22:58;;;;;;;18.17;9.65;;;;;;;11.90;94.07;101186.44;10411615;28;20521;-81
2022/09/24 20:28:00;;;;;;;24.27;9.18;;;;;;;11.83;93.97;101184.59;10408401;28;20049;-81
2022/09/24 20:33:06;;;;;;;21.00;9.20;;;;;;;11.90;94.06;101188.19;10405223;28;20050;-80
2022/09/24 20:38:08;;;;;;;19.52;8.38;;;;;;;11.88;94.04;101193.41;10403972;28;20053;-80
2022/09/24 20:43:09;;;;;;;22.95;9.55;;;;;;;11.83;94.04;101198.56;10410567;28;20053;-81
2022/09/24 20:48:11;;;;;;;20.08;9.02;;;;;;;11.87;94.00;101203.88;10409091;28;20050;-81
2022/09/24 20:53:13;;;;;;;13.82;8.25;;;;;;;11.78;94.17;101200.22;10403985;28;20133;-80
2022/09/24 20:58:15;;;;;;;17.80;8.93;;;;;;;11.78;94.27;101202.84;10403989;28;20147;-80
2022/09/24 21:03:16;;;;;;;18.38;8.65;;;;;;;11.81;94.38;101207.25;10407259;28;20049;-80
2022/09/24 21:08:40;;;;;;;19.00;9.00;;;;;;;11.77;94.44;101205.44;10385677;28;20068;-80
2022/09/24 21:13:50;;;;;;;18.88;9.23;;;;;;;11.79;94.53;101209.00;10408048;28;20053;-79
2022/09/24 21:18:55;;;;;;;23.13;9.45;;;;;;;11.82;94.68;101204.66;10379998;28;20398;-80
2022/09/24 21:23:58;;;;;;;21.25;10.18;;;;;;;11.81;94.88;101202.00;10407093;28;20270;-80
2022/09/24 21:29:21;;;;;;;19.13;9.23;;;;;;;11.80;94.90;101209.00;10385447;28;20064;-80
2022/09/24 21:34:22;;;;;;;25.33;9.68;;;;;;;11.79;95.04;101204.63;10399973;28;20046;-79
2022/09/24 21:39:27;;;;;;;20.23;8.23;;;;;;;11.74;95.18;101208.91;10399119;28;20063;-79
2022/09/24 21:44:30;;;;;;;16.23;7.20;;;;;;;11.76;95.32;101204.56;10393723;28;20505;-79
2022/09/24 21:49:35;;;;;;;20.23;6.57;;;;;;;11.77;95.44;101211.59;10401032;28;20049;-80
2022/09/24 21:54:38;;;;;;;12.80;4.97;;;;;;;11.75;95.49;101208.03;10404772;28;20140;-79
2022/09/24 21:59:58;;;;;;;9.18;3.72;;;;;;;11.75;95.35;101210.66;10402333;28;20076;-79
2022/09/24 22:05:00;;;;;;;9.00;3.00;;;;;;;11.72;95.56;101207.97;10372887;28;20139;-80
2022/09/24 22:10:02;;;;;;;12.30;3.20;;;;;;;11.69;95.40;101207.91;10403177;28;20142;-80
2022/09/24 22:15:04;;;;;;;15.40;2.67;;;;;;;11.68;95.68;101206.16;10404514;28;20053;-80
2022/09/24 22:20:06;;;;;;;8.30;2.70;;;;;;;11.68;95.59;101208.78;10396128;28;20041;-79
2022/09/24 22:25:08;;;;;;;11.18;1.88;;;;;;;11.63;95.63;101199.94;10403412;28;20068;-80
2022/09/24 22:30:10;;;;;;;11.00;2.60;;;;;;;11.62;95.65;101203.41;10395419;28;20049;-80
2022/09/24 22:40:35;;;;;;;11.55;2.40;;;;;;;11.52;95.52;101204.09;10395502;28;20053;-80
2022/09/24 22:45:37;;;;;;;8.20;2.40;;;;;;;11.49;95.61;101197.03;10379852;28;20138;-79
2022/09/24 22:50:39;;;;;;;11.50;2.40;;;;;;;11.51;95.50;101203.19;10387400;28;20050;-80
2022/09/24 22:55:41;;;;;;;12.50;2.40;;;;;;;11.48;95.45;101203.13;10383462;28;20045;-80
2022/09/24 23:00:43;;;;;;;12.32;1.98;;;;;;;11.49;95.58;101200.53;10372195;28;20049;-79
2022/09/24 23:05:45;;;;;;;15.82;2.17;;;;;;;11.53;95.72;101205.84;10396413;28;20129;-80
2022/09/24 23:10:46;;;;;;;11.00;2.00;;;;;;;11.53;95.81;101203.22;10378779;28;20111;-79
2022/09/24 23:15:48;;;;;;;11.70;1.90;;;;;;;11.53;95.80;101205.84;10399068;28;20099;-80
2022/09/24 23:20:50;;;;;;;10.45;1.85;;;;;;;11.50;95.73;101197.06;10375279;28;20565;-80
2022/09/24 23:25:52;;;;;;;10.63;2.22;;;;;;;11.44;95.85;101196.97;10410042;28;20083;-80
2022/09/24 23:30:58;;;;;;;8.60;2.55;;;;;;;11.45;95.96;101190.88;10405976;28;20038;-80
2022/09/24 23:36:01;;;;;;;8.57;1.75;;;;;;;11.44;95.90;101196.97;10386037;28;20414;-79
2022/09/24 23:41:04;;;;;;;6.85;1.90;;;;;;;11.44;96.00;101186.47;10411129;28;20192;-80
2022/09/24 23:46:05;;;;;;;12.80;2.58;;;;;;;11.44;96.02;101194.34;10393537;28;20131;-79
2022/09/24 23:51:08;;;;;;;16.42;2.10;;;;;;;11.41;96.18;101196.00;10411913;28;20052;-80
2022/09/24 23:56:11;;;;;;;20.63;2.30;;;;;;;11.44;96.11;101199.56;10387712;28;20099;-80
